sensor_id;sensor_type;location;lat;lon;timestamp;temperature;humidity
41720;DHT22;27405;53.316;-6.294;2023-12-29T00:01:59;7.80;99.90
41720;DHT22;27405;53.316;-6.294;2023-12-29T00:04:26;7.70;99.90
41720;DHT22;27405;53.316;-6.294;2023-12-29T00:06:51;7.70;99.90
41720;DHT22;27405;53.316;-6.294;2023-12-29T00:09:17;7.70;99.90
41720;DHT22;27405;53.316;-6.294;2023-12-29T00:11:47;7.70;99.90
41720;DHT22;27405;53.316;-6.294;2023-12-29T00:14:12;7.60;99.90
41720;DHT22;27405;53.316;-6.294;2023-12-29T00:16:38;7.60;99.90
41720;DHT22;27405;53.316;-6.294;2023-12-29T00:19:04;7.60;99.90
41720;DHT22;27405;53.316;-6.294;2023-12-29T00:21:29;7.60;99.90
41720;DHT22;27405;53.316;-6.294;2023-12-29T00:23:55;7.60;99.90
41720;DHT22;27405;53.316;-6.294;2023-12-29T00:26:22;7.60;99.90
41720;DHT22;27405;53.316;-6.294;2023-12-29T00:28:47;7.60;99.90
41720;DHT22;27405;53.316;-6.294;2023-12-29T00:31:16;7.60;99.90
41720;DHT22;27405;53.316;-6.294;2023-12-29T00:33:45;7.60;99.90
41720;DHT22;27405;53.316;-6.294;2023-12-29T00:36:17;7.70;99.90
41720;DHT22;27405;53.316;-6.294;2023-12-29T00:38:44;7.60;99.90
41720;DHT22;27405;53.316;-6.294;2023-12-29T00:41:09;7.70;99.90
41720;DHT22;27405;53.316;-6.294;2023-12-29T00:43:35;7.70;99.90
41720;DHT22;27405;53.316;-6.294;2023-12-29T00:46:02;7.60;99.90
41720;DHT22;27405;53.316;-6.294;2023-12-29T00:48:29;7.60;99.90
41720;DHT22;27405;53.316;-6.294;2023-12-29T00:50:54;7.60;99.90
41720;DHT22;27405;53.316;-6.294;2023-12-29T00:53:20;7.70;99.90
41720;DHT22;27405;53.316;-6.294;2023-12-29T00:55:46;7.70;99.90
41720;DHT22;27405;53.316;-6.294;2023-12-29T00:58:12;7.60;99.90
41720;DHT22;27405;53.316;-6.294;2023-12-29T01:00:37;7.60;99.90
41720;DHT22;27405;53.316;-6.294;2023-12-29T01:03:03;7.60;99.90
41720;DHT22;27405;53.316;-6.294;2023-12-29T01:05:29;7.60;99.90
41720;DHT22;27405;53.316;-6.294;2023-12-29T01:07:55;7.60;99.90
41720;DHT22;27405;53.316;-6.294;2023-12-29T01:10:21;7.50;99.90
41720;DHT22;27405;53.316;-6.294;2023-12-29T01:12:46;7.50;99.90
41720;DHT22;27405;53.316;-6.294;2023-12-29T01:15:13;7.50;99.90
41720;DHT22;27405;53.316;-6.294;2023-12-29T01:17:39;7.50;99.90
41720;DHT22;27405;53.316;-6.294;2023-12-29T01:20:05;7.50;99.90
41720;DHT22;27405;53.316;-6.294;2023-12-29T01:22:30;7.50;99.90
41720;DHT22;27405;53.316;-6.294;2023-12-29T01:24:59;7.50;99.90
41720;DHT22;27405;53.316;-6.294;2023-12-29T01:27:25;7.40;99.90
41720;DHT22;27405;53.316;-6.294;2023-12-29T01:29:51;7.50;99.90
41720;DHT22;27405;53.316;-6.294;2023-12-29T01:32:18;7.50;99.90
41720;DHT22;27405;53.316;-6.294;2023-12-29T01:34:44;7.40;99.90
41720;DHT22;27405;53.316;-6.294;2023-12-29T01:37:10;7.50;99.90
41720;DHT22;27405;53.316;-6.294;2023-12-29T01:39:35;7.50;99.90
41720;DHT22;27405;53.316;-6.294;2023-12-29T01:42:01;7.50;99.90
41720;DHT22;27405;53.316;-6.294;2023-12-29T01:44:27;7.50;99.90
41720;DHT22;27405;53.316;-6.294;2023-12-29T01:46:59;7.50;99.90
41720;DHT22;27405;53.316;-6.294;2023-12-29T01:49:25;7.50;99.90
41720;DHT22;27405;53.316;-6.294;2023-12-29T01:51:54;7.50;99.90
41720;DHT22;27405;53.316;-6.294;2023-12-29T01:54:21;7.50;99.90
41720;DHT22;27405;53.316;-6.294;2023-12-29T01:56:49;7.60;99.90
41720;DHT22;27405;53.316;-6.294;2023-12-29T01:59:15;7.50;99.90
41720;DHT22;27405;53.316;-6.294;2023-12-29T02:01:42;7.50;99.90
41720;DHT22;27405;53.316;-6.294;2023-12-29T02:04:10;7.50;99.90
41720;DHT22;27405;53.316;-6.294;2023-12-29T02:06:38;7.50;99.90
41720;DHT22;27405;53.316;-6.294;2023-12-29T02:09:04;7.40;99.90
41720;DHT22;27405;53.316;-6.294;2023-12-29T02:11:31;7.40;99.90
41720;DHT22;27405;53.316;-6.294;2023-12-29T02:14:00;7.50;99.90
41720;DHT22;27405;53.316;-6.294;2023-12-29T02:16:38;7.40;99.90
41720;DHT22;27405;53.316;-6.294;2023-12-29T02:22:04;7.40;99.90
41720;DHT22;27405;53.316;-6.294;2023-12-29T02:24:30;7.50;99.90
41720;DHT22;27405;53.316;-6.294;2023-12-29T02:30:01;7.40;99.90
41720;DHT22;27405;53.316;-6.294;2023-12-29T02:32:33;7.40;99.90
41720;DHT22;27405;53.316;-6.294;2023-12-29T02:34:59;7.40;99.90
41720;DHT22;27405;53.316;-6.294;2023-12-29T02:37:27;7.30;99.90
41720;DHT22;27405;53.316;-6.294;2023-12-29T02:39:55;7.40;99.90
41720;DHT22;27405;53.316;-6.294;2023-12-29T02:42:21;7.30;99.90
41720;DHT22;27405;53.316;-6.294;2023-12-29T02:44:47;7.30;99.90
41720;DHT22;27405;53.316;-6.294;2023-12-29T02:47:13;7.30;99.90
41720;DHT22;27405;53.316;-6.294;2023-12-29T02:49:38;7.20;99.90
41720;DHT22;27405;53.316;-6.294;2023-12-29T02:52:04;7.20;99.90
41720;DHT22;27405;53.316;-6.294;2023-12-29T02:54:30;7.30;99.90
41720;DHT22;27405;53.316;-6.294;2023-12-29T02:56:56;7.30;99.90
41720;DHT22;27405;53.316;-6.294;2023-12-29T02:59:21;7.30;99.90
41720;DHT22;27405;53.316;-6.294;2023-12-29T03:01:47;7.30;99.90
41720;DHT22;27405;53.316;-6.294;2023-12-29T03:04:13;7.20;99.90
41720;DHT22;27405;53.316;-6.294;2023-12-29T03:06:40;7.20;99.90
41720;DHT22;27405;53.316;-6.294;2023-12-29T03:09:06;7.30;99.90
41720;DHT22;27405;53.316;-6.294;2023-12-29T03:11:32;7.30;99.90
41720;DHT22;27405;53.316;-6.294;2023-12-29T03:13:57;7.30;99.90
41720;DHT22;27405;53.316;-6.294;2023-12-29T03:16:23;7.20;99.90
41720;DHT22;27405;53.316;-6.294;2023-12-29T03:18:49;7.30;99.90
41720;DHT22;27405;53.316;-6.294;2023-12-29T03:21:14;7.30;99.90
41720;DHT22;27405;53.316;-6.294;2023-12-29T03:23:40;7.30;99.90
41720;DHT22;27405;53.316;-6.294;2023-12-29T03:26:06;7.30;99.90
41720;DHT22;27405;53.316;-6.294;2023-12-29T03:28:31;7.30;99.90
41720;DHT22;27405;53.316;-6.294;2023-12-29T03:30:57;7.30;99.90
41720;DHT22;27405;53.316;-6.294;2023-12-29T03:33:23;7.30;99.90
41720;DHT22;27405;53.316;-6.294;2023-12-29T03:35:48;7.30;99.90
41720;DHT22;27405;53.316;-6.294;2023-12-29T03:38:14;7.20;99.90
41720;DHT22;27405;53.316;-6.294;2023-12-29T03:40:40;7.30;99.90
41720;DHT22;27405;53.316;-6.294;2023-12-29T03:43:06;7.20;99.90
41720;DHT22;27405;53.316;-6.294;2023-12-29T03:45:31;7.20;99.90
41720;DHT22;27405;53.316;-6.294;2023-12-29T03:47:57;7.20;99.90
41720;DHT22;27405;53.316;-6.294;2023-12-29T03:50:23;7.20;99.90
41720;DHT22;27405;53.316;-6.294;2023-12-29T03:52:48;7.20;99.90
41720;DHT22;27405;53.316;-6.294;2023-12-29T03:55:14;7.10;99.90
41720;DHT22;27405;53.316;-6.294;2023-12-29T03:57:42;7.10;99.90
41720;DHT22;27405;53.316;-6.294;2023-12-29T04:00:12;7.10;99.90
41720;DHT22;27405;53.316;-6.294;2023-12-29T04:02:38;7.10;99.90
41720;DHT22;27405;53.316;-6.294;2023-12-29T04:05:05;7.00;99.90
41720;DHT22;27405;53.316;-6.294;2023-12-29T04:07:31;7.00;99.90
41720;DHT22;27405;53.316;-6.294;2023-12-29T04:09:57;7.00;99.90
41720;DHT22;27405;53.316;-6.294;2023-12-29T04:12:23;7.00;99.90
41720;DHT22;27405;53.316;-6.294;2023-12-29T04:14:48;7.00;99.90
41720;DHT22;27405;53.316;-6.294;2023-12-29T04:17:14;6.90;99.90
41720;DHT22;27405;53.316;-6.294;2023-12-29T04:19:42;7.00;99.90
41720;DHT22;27405;53.316;-6.294;2023-12-29T04:22:08;6.90;99.90
41720;DHT22;27405;53.316;-6.294;2023-12-29T04:24:34;7.00;99.90
41720;DHT22;27405;53.316;-6.294;2023-12-29T04:27:00;7.00;99.90
41720;DHT22;27405;53.316;-6.294;2023-12-29T04:29:25;7.00;99.90
41720;DHT22;27405;53.316;-6.294;2023-12-29T04:31:51;7.10;99.90
41720;DHT22;27405;53.316;-6.294;2023-12-29T04:34:17;7.10;99.90
41720;DHT22;27405;53.316;-6.294;2023-12-29T04:36:43;7.10;99.90
41720;DHT22;27405;53.316;-6.294;2023-12-29T04:39:08;7.10;99.90
41720;DHT22;27405;53.316;-6.294;2023-12-29T04:41:37;7.10;99.90
41720;DHT22;27405;53.316;-6.294;2023-12-29T04:44:02;7.20;99.90
41720;DHT22;27405;53.316;-6.294;2023-12-29T04:46:28;7.10;99.90
41720;DHT22;27405;53.316;-6.294;2023-12-29T04:48:54;7.10;99.90
41720;DHT22;27405;53.316;-6.294;2023-12-29T04:51:20;7.10;99.90
41720;DHT22;27405;53.316;-6.294;2023-12-29T04:53:46;7.10;99.90
41720;DHT22;27405;53.316;-6.294;2023-12-29T04:56:11;7.00;99.90
41720;DHT22;27405;53.316;-6.294;2023-12-29T04:58:37;7.00;99.90
41720;DHT22;27405;53.316;-6.294;2023-12-29T05:01:03;6.90;99.90
41720;DHT22;27405;53.316;-6.294;2023-12-29T05:03:29;6.90;99.90
41720;DHT22;27405;53.316;-6.294;2023-12-29T05:05:55;6.80;99.90
41720;DHT22;27405;53.316;-6.294;2023-12-29T05:08:21;6.80;99.90
41720;DHT22;27405;53.316;-6.294;2023-12-29T05:10:47;6.70;99.90
41720;DHT22;27405;53.316;-6.294;2023-12-29T05:13:13;6.70;99.90
41720;DHT22;27405;53.316;-6.294;2023-12-29T05:15:39;6.70;99.90
41720;DHT22;27405;53.316;-6.294;2023-12-29T05:18:04;6.70;99.90
41720;DHT22;27405;53.316;-6.294;2023-12-29T05:20:31;6.80;99.90
41720;DHT22;27405;53.316;-6.294;2023-12-29T05:22:56;6.80;99.90
41720;DHT22;27405;53.316;-6.294;2023-12-29T05:25:22;6.80;99.90
41720;DHT22;27405;53.316;-6.294;2023-12-29T05:27:49;6.90;99.90
41720;DHT22;27405;53.316;-6.294;2023-12-29T05:32:41;6.90;99.90
41720;DHT22;27405;53.316;-6.294;2023-12-29T05:35:06;7.00;99.90
41720;DHT22;27405;53.316;-6.294;2023-12-29T05:37:32;7.00;99.90
41720;DHT22;27405;53.316;-6.294;2023-12-29T05:39:58;7.00;99.90
41720;DHT22;27405;53.316;-6.294;2023-12-29T05:42:23;6.90;99.90
41720;DHT22;27405;53.316;-6.294;2023-12-29T05:44:49;6.90;99.90
41720;DHT22;27405;53.316;-6.294;2023-12-29T05:47:17;6.90;99.90
41720;DHT22;27405;53.316;-6.294;2023-12-29T05:49:43;6.90;99.90
41720;DHT22;27405;53.316;-6.294;2023-12-29T05:52:09;6.80;99.90
41720;DHT22;27405;53.316;-6.294;2023-12-29T05:54:35;6.90;99.90
41720;DHT22;27405;53.316;-6.294;2023-12-29T05:57:01;6.90;99.90
41720;DHT22;27405;53.316;-6.294;2023-12-29T05:59:26;6.90;99.90
41720;DHT22;27405;53.316;-6.294;2023-12-29T06:01:52;6.80;99.90
41720;DHT22;27405;53.316;-6.294;2023-12-29T06:04:18;6.80;99.90
41720;DHT22;27405;53.316;-6.294;2023-12-29T06:06:44;6.80;99.90
41720;DHT22;27405;53.316;-6.294;2023-12-29T06:09:10;6.70;99.90
41720;DHT22;27405;53.316;-6.294;2023-12-29T06:11:36;6.70;99.90
41720;DHT22;27405;53.316;-6.294;2023-12-29T06:14:02;6.70;99.90
41720;DHT22;27405;53.316;-6.294;2023-12-29T06:16:29;6.70;99.90
41720;DHT22;27405;53.316;-6.294;2023-12-29T06:18:56;6.70;99.90
41720;DHT22;27405;53.316;-6.294;2023-12-29T06:21:22;6.70;99.90
41720;DHT22;27405;53.316;-6.294;2023-12-29T06:23:48;6.70;99.90
41720;DHT22;27405;53.316;-6.294;2023-12-29T06:26:15;6.70;99.90
41720;DHT22;27405;53.316;-6.294;2023-12-29T06:28:41;6.70;99.90
41720;DHT22;27405;53.316;-6.294;2023-12-29T06:31:06;6.60;99.90
41720;DHT22;27405;53.316;-6.294;2023-12-29T06:33:33;6.70;99.90
41720;DHT22;27405;53.316;-6.294;2023-12-29T06:35:58;6.60;99.90
41720;DHT22;27405;53.316;-6.294;2023-12-29T06:38:24;6.60;99.90
41720;DHT22;27405;53.316;-6.294;2023-12-29T06:40:50;6.60;99.90
41720;DHT22;27405;53.316;-6.294;2023-12-29T06:43:15;6.60;99.90
41720;DHT22;27405;53.316;-6.294;2023-12-29T06:45:41;6.60;99.90
41720;DHT22;27405;53.316;-6.294;2023-12-29T06:48:07;6.60;99.90
41720;DHT22;27405;53.316;-6.294;2023-12-29T06:50:33;6.50;99.90
41720;DHT22;27405;53.316;-6.294;2023-12-29T06:52:59;6.50;99.90
41720;DHT22;27405;53.316;-6.294;2023-12-29T06:55:25;6.50;99.90
41720;DHT22;27405;53.316;-6.294;2023-12-29T06:57:51;6.50;99.90
41720;DHT22;27405;53.316;-6.294;2023-12-29T07:00:17;6.50;99.90
41720;DHT22;27405;53.316;-6.294;2023-12-29T07:02:42;6.40;99.90
41720;DHT22;27405;53.316;-6.294;2023-12-29T07:05:08;6.40;99.90
41720;DHT22;27405;53.316;-6.294;2023-12-29T07:07:37;6.40;99.90
41720;DHT22;27405;53.316;-6.294;2023-12-29T07:10:03;6.40;99.90
41720;DHT22;27405;53.316;-6.294;2023-12-29T07:12:29;6.40;99.90
41720;DHT22;27405;53.316;-6.294;2023-12-29T07:14:54;6.40;99.90
41720;DHT22;27405;53.316;-6.294;2023-12-29T07:17:20;6.40;99.90
41720;DHT22;27405;53.316;-6.294;2023-12-29T07:19:46;6.40;99.90
41720;DHT22;27405;53.316;-6.294;2023-12-29T07:22:11;6.40;99.90
41720;DHT22;27405;53.316;-6.294;2023-12-29T07:24:37;6.40;99.90
41720;DHT22;27405;53.316;-6.294;2023-12-29T07:27:04;6.40;99.90
41720;DHT22;27405;53.316;-6.294;2023-12-29T07:29:30;6.40;99.90
41720;DHT22;27405;53.316;-6.294;2023-12-29T07:31:55;6.30;99.90
41720;DHT22;27405;53.316;-6.294;2023-12-29T07:34:21;6.30;99.90
41720;DHT22;27405;53.316;-6.294;2023-12-29T07:36:47;6.30;99.90
41720;DHT22;27405;53.316;-6.294;2023-12-29T07:39:12;6.20;99.90
41720;DHT22;27405;53.316;-6.294;2023-12-29T07:41:42;6.20;99.90
41720;DHT22;27405;53.316;-6.294;2023-12-29T07:44:09;6.30;99.90
41720;DHT22;27405;53.316;-6.294;2023-12-29T07:46:38;6.30;99.90
41720;DHT22;27405;53.316;-6.294;2023-12-29T07:49:04;6.30;99.90
41720;DHT22;27405;53.316;-6.294;2023-12-29T07:51:30;6.20;99.90
41720;DHT22;27405;53.316;-6.294;2023-12-29T07:53:56;6.20;99.90
41720;DHT22;27405;53.316;-6.294;2023-12-29T07:56:21;6.20;99.90
41720;DHT22;27405;53.316;-6.294;2023-12-29T07:58:47;6.20;99.90
41720;DHT22;27405;53.316;-6.294;2023-12-29T08:01:13;6.20;99.90
41720;DHT22;27405;53.316;-6.294;2023-12-29T08:03:39;6.10;99.90
41720;DHT22;27405;53.316;-6.294;2023-12-29T08:06:05;6.10;99.90
41720;DHT22;27405;53.316;-6.294;2023-12-29T08:08:31;6.10;99.90
41720;DHT22;27405;53.316;-6.294;2023-12-29T08:10:56;6.10;99.90
41720;DHT22;27405;53.316;-6.294;2023-12-29T08:13:22;6.10;99.90
41720;DHT22;27405;53.316;-6.294;2023-12-29T08:15:47;6.10;99.90
41720;DHT22;27405;53.316;-6.294;2023-12-29T08:18:13;6.10;99.90
41720;DHT22;27405;53.316;-6.294;2023-12-29T08:20:39;6.10;99.90
41720;DHT22;27405;53.316;-6.294;2023-12-29T08:23:04;6.10;99.90
41720;DHT22;27405;53.316;-6.294;2023-12-29T08:25:30;6.00;99.90
41720;DHT22;27405;53.316;-6.294;2023-12-29T08:27:56;6.00;99.90
41720;DHT22;27405;53.316;-6.294;2023-12-29T08:30:22;6.00;99.90
41720;DHT22;27405;53.316;-6.294;2023-12-29T08:32:48;6.00;99.90
41720;DHT22;27405;53.316;-6.294;2023-12-29T08:35:13;6.00;99.90
41720;DHT22;27405;53.316;-6.294;2023-12-29T08:37:39;6.00;99.90
41720;DHT22;27405;53.316;-6.294;2023-12-29T08:40:05;6.00;99.90
41720;DHT22;27405;53.316;-6.294;2023-12-29T08:42:32;6.00;99.90
41720;DHT22;27405;53.316;-6.294;2023-12-29T08:44:59;6.00;99.90
41720;DHT22;27405;53.316;-6.294;2023-12-29T08:47:25;6.00;99.90
41720;DHT22;27405;53.316;-6.294;2023-12-29T08:49:50;6.00;99.90
41720;DHT22;27405;53.316;-6.294;2023-12-29T08:52:16;6.10;99.90
41720;DHT22;27405;53.316;-6.294;2023-12-29T08:54:42;6.10;99.90
41720;DHT22;27405;53.316;-6.294;2023-12-29T08:57:07;6.10;99.90
41720;DHT22;27405;53.316;-6.294;2023-12-29T08:59:35;6.10;99.90
41720;DHT22;27405;53.316;-6.294;2023-12-29T09:02:01;6.10;99.90
41720;DHT22;27405;53.316;-6.294;2023-12-29T09:04:26;6.10;99.90
41720;DHT22;27405;53.316;-6.294;2023-12-29T09:06:52;6.10;99.90
41720;DHT22;27405;53.316;-6.294;2023-12-29T09:09:18;6.20;99.90
41720;DHT22;27405;53.316;-6.294;2023-12-29T09:11:46;6.20;99.90
41720;DHT22;27405;53.316;-6.294;2023-12-29T09:14:12;6.30;99.90
41720;DHT22;27405;53.316;-6.294;2023-12-29T09:16:38;6.30;99.90
41720;DHT22;27405;53.316;-6.294;2023-12-29T09:19:05;6.30;99.90
41720;DHT22;27405;53.316;-6.294;2023-12-29T09:21:31;6.40;99.90
41720;DHT22;27405;53.316;-6.294;2023-12-29T09:23:56;6.40;99.90
41720;DHT22;27405;53.316;-6.294;2023-12-29T09:26:23;6.50;99.90
41720;DHT22;27405;53.316;-6.294;2023-12-29T09:28:49;6.60;99.90
41720;DHT22;27405;53.316;-6.294;2023-12-29T09:31:16;6.60;99.90
41720;DHT22;27405;53.316;-6.294;2023-12-29T09:33:42;6.60;99.90
41720;DHT22;27405;53.316;-6.294;2023-12-29T09:36:07;6.60;99.90
41720;DHT22;27405;53.316;-6.294;2023-12-29T09:38:33;6.60;99.90
41720;DHT22;27405;53.316;-6.294;2023-12-29T09:41:02;6.60;99.90
41720;DHT22;27405;53.316;-6.294;2023-12-29T09:43:31;6.70;99.90
41720;DHT22;27405;53.316;-6.294;2023-12-29T09:45:58;6.70;99.90
41720;DHT22;27405;53.316;-6.294;2023-12-29T09:48:26;6.80;99.90
41720;DHT22;27405;53.316;-6.294;2023-12-29T09:50:52;6.80;99.90
41720;DHT22;27405;53.316;-6.294;2023-12-29T09:53:20;6.90;99.90
41720;DHT22;27405;53.316;-6.294;2023-12-29T09:55:49;7.00;99.90
41720;DHT22;27405;53.316;-6.294;2023-12-29T09:58:15;7.00;99.90
41720;DHT22;27405;53.316;-6.294;2023-12-29T10:00:44;7.10;99.90
41720;DHT22;27405;53.316;-6.294;2023-12-29T10:03:12;7.20;99.90
41720;DHT22;27405;53.316;-6.294;2023-12-29T10:05:37;7.30;99.90
41720;DHT22;27405;53.316;-6.294;2023-12-29T10:08:05;7.30;99.90
41720;DHT22;27405;53.316;-6.294;2023-12-29T10:10:34;7.40;99.90
41720;DHT22;27405;53.316;-6.294;2023-12-29T10:13:01;7.40;99.90
41720;DHT22;27405;53.316;-6.294;2023-12-29T10:18:28;7.40;99.90
41720;DHT22;27405;53.316;-6.294;2023-12-29T10:24:12;7.40;99.90
41720;DHT22;27405;53.316;-6.294;2023-12-29T10:26:39;7.40;99.90
41720;DHT22;27405;53.316;-6.294;2023-12-29T10:29:06;7.40;99.90
41720;DHT22;27405;53.316;-6.294;2023-12-29T10:31:32;7.40;99.90
41720;DHT22;27405;53.316;-6.294;2023-12-29T10:34:20;7.30;99.90
41720;DHT22;27405;53.316;-6.294;2023-12-29T10:36:50;7.30;99.90
41720;DHT22;27405;53.316;-6.294;2023-12-29T10:39:16;7.30;99.90
41720;DHT22;27405;53.316;-6.294;2023-12-29T10:41:42;7.20;99.90
41720;DHT22;27405;53.316;-6.294;2023-12-29T10:44:08;7.20;99.90
41720;DHT22;27405;53.316;-6.294;2023-12-29T10:46:34;7.10;99.90
41720;DHT22;27405;53.316;-6.294;2023-12-29T10:49:12;7.10;99.90
41720;DHT22;27405;53.316;-6.294;2023-12-29T10:51:39;7.10;99.90
41720;DHT22;27405;53.316;-6.294;2023-12-29T10:54:05;7.00;99.90
41720;DHT22;27405;53.316;-6.294;2023-12-29T10:56:32;7.00;99.90
41720;DHT22;27405;53.316;-6.294;2023-12-29T10:59:02;7.00;99.90
41720;DHT22;27405;53.316;-6.294;2023-12-29T11:01:35;6.90;99.90
41720;DHT22;27405;53.316;-6.294;2023-12-29T11:04:03;6.90;99.90
41720;DHT22;27405;53.316;-6.294;2023-12-29T11:06:39;6.80;99.90
41720;DHT22;27405;53.316;-6.294;2023-12-29T11:09:04;6.80;99.90
41720;DHT22;27405;53.316;-6.294;2023-12-29T11:11:31;6.80;99.90
41720;DHT22;27405;53.316;-6.294;2023-12-29T11:13:57;6.70;99.90
41720;DHT22;27405;53.316;-6.294;2023-12-29T11:16:24;6.70;99.90
41720;DHT22;27405;53.316;-6.294;2023-12-29T11:18:51;6.70;99.90
41720;DHT22;27405;53.316;-6.294;2023-12-29T11:21:19;6.60;99.90
41720;DHT22;27405;53.316;-6.294;2023-12-29T11:23:47;6.70;99.90
41720;DHT22;27405;53.316;-6.294;2023-12-29T11:26:13;6.70;99.90
41720;DHT22;27405;53.316;-6.294;2023-12-29T11:28:39;6.70;99.90
41720;DHT22;27405;53.316;-6.294;2023-12-29T11:31:04;6.80;99.90
41720;DHT22;27405;53.316;-6.294;2023-12-29T11:33:38;6.80;99.90
41720;DHT22;27405;53.316;-6.294;2023-12-29T11:36:18;6.90;99.90
41720;DHT22;27405;53.316;-6.294;2023-12-29T11:39:17;6.90;99.90
41720;DHT22;27405;53.316;-6.294;2023-12-29T11:44:25;6.80;99.90
41720;DHT22;27405;53.316;-6.294;2023-12-29T11:46:56;6.80;99.90
41720;DHT22;27405;53.316;-6.294;2023-12-29T11:49:25;6.80;99.90
41720;DHT22;27405;53.316;-6.294;2023-12-29T11:51:51;6.80;99.90
41720;DHT22;27405;53.316;-6.294;2023-12-29T11:54:25;6.90;99.90
41720;DHT22;27405;53.316;-6.294;2023-12-29T11:56:52;6.90;99.90
41720;DHT22;27405;53.316;-6.294;2023-12-29T11:59:25;6.90;99.90
41720;DHT22;27405;53.316;-6.294;2023-12-29T12:01:53;6.90;99.90
41720;DHT22;27405;53.316;-6.294;2023-12-29T12:04:44;6.90;99.90
41720;DHT22;27405;53.316;-6.294;2023-12-29T12:12:49;6.90;99.90
41720;DHT22;27405;53.316;-6.294;2023-12-29T12:18:11;6.90;99.90
41720;DHT22;27405;53.316;-6.294;2023-12-29T12:20:38;6.90;99.90
41720;DHT22;27405;53.316;-6.294;2023-12-29T12:23:24;6.90;99.90
41720;DHT22;27405;53.316;-6.294;2023-12-29T12:25:57;7.00;99.90
41720;DHT22;27405;53.316;-6.294;2023-12-29T12:28:25;7.00;99.90
41720;DHT22;27405;53.316;-6.294;2023-12-29T12:30:50;7.10;99.90
41720;DHT22;27405;53.316;-6.294;2023-12-29T12:33:16;7.10;99.90
41720;DHT22;27405;53.316;-6.294;2023-12-29T12:35:42;7.10;99.90
41720;DHT22;27405;53.316;-6.294;2023-12-29T12:38:16;7.00;99.90
41720;DHT22;27405;53.316;-6.294;2023-12-29T12:40:50;6.90;99.90
41720;DHT22;27405;53.316;-6.294;2023-12-29T12:43:17;6.90;99.90
41720;DHT22;27405;53.316;-6.294;2023-12-29T12:45:48;6.80;99.90
41720;DHT22;27405;53.316;-6.294;2023-12-29T12:48:35;6.80;99.90
41720;DHT22;27405;53.316;-6.294;2023-12-29T12:51:02;6.70;99.90
41720;DHT22;27405;53.316;-6.294;2023-12-29T12:53:29;6.70;99.90
41720;DHT22;27405;53.316;-6.294;2023-12-29T12:55:54;6.70;99.90
41720;DHT22;27405;53.316;-6.294;2023-12-29T12:58:21;6.60;99.90
41720;DHT22;27405;53.316;-6.294;2023-12-29T13:00:47;6.60;99.90
41720;DHT22;27405;53.316;-6.294;2023-12-29T13:03:14;6.60;99.90
41720;DHT22;27405;53.316;-6.294;2023-12-29T13:05:40;6.60;99.90
41720;DHT22;27405;53.316;-6.294;2023-12-29T13:08:06;6.60;99.90
41720;DHT22;27405;53.316;-6.294;2023-12-29T13:10:33;6.70;99.90
41720;DHT22;27405;53.316;-6.294;2023-12-29T13:12:58;6.80;99.90
41720;DHT22;27405;53.316;-6.294;2023-12-29T13:15:24;6.90;99.90
41720;DHT22;27405;53.316;-6.294;2023-12-29T13:17:51;7.00;99.90
41720;DHT22;27405;53.316;-6.294;2023-12-29T13:20:17;7.00;99.90
41720;DHT22;27405;53.316;-6.294;2023-12-29T13:22:43;7.10;99.90
41720;DHT22;27405;53.316;-6.294;2023-12-29T13:25:10;7.10;99.90
41720;DHT22;27405;53.316;-6.294;2023-12-29T13:27:39;7.10;99.90
41720;DHT22;27405;53.316;-6.294;2023-12-29T13:30:06;7.10;99.90
41720;DHT22;27405;53.316;-6.294;2023-12-29T13:32:32;7.10;99.90
41720;DHT22;27405;53.316;-6.294;2023-12-29T13:35:20;7.10;99.90
41720;DHT22;27405;53.316;-6.294;2023-12-29T13:42:47;6.80;99.90
41720;DHT22;27405;53.316;-6.294;2023-12-29T13:45:15;6.80;99.90
41720;DHT22;27405;53.316;-6.294;2023-12-29T13:47:42;6.70;99.90
41720;DHT22;27405;53.316;-6.294;2023-12-29T13:50:10;6.60;99.90
41720;DHT22;27405;53.316;-6.294;2023-12-29T13:52:40;6.60;99.90
41720;DHT22;27405;53.316;-6.294;2023-12-29T13:55:06;6.60;99.90
41720;DHT22;27405;53.316;-6.294;2023-12-29T13:57:33;6.60;99.90
41720;DHT22;27405;53.316;-6.294;2023-12-29T14:00:21;6.60;99.90
41720;DHT22;27405;53.316;-6.294;2023-12-29T14:05:31;6.70;99.90
41720;DHT22;27405;53.316;-6.294;2023-12-29T14:10:36;6.70;99.90
41720;DHT22;27405;53.316;-6.294;2023-12-29T14:13:06;6.70;99.90
41720;DHT22;27405;53.316;-6.294;2023-12-29T14:15:39;6.70;99.90
41720;DHT22;27405;53.316;-6.294;2023-12-29T14:20:52;6.70;99.90
41720;DHT22;27405;53.316;-6.294;2023-12-29T14:23:18;6.70;99.90
41720;DHT22;27405;53.316;-6.294;2023-12-29T14:25:45;6.70;99.90
41720;DHT22;27405;53.316;-6.294;2023-12-29T14:28:19;6.70;99.90
41720;DHT22;27405;53.316;-6.294;2023-12-29T14:30:47;6.70;99.90
41720;DHT22;27405;53.316;-6.294;2023-12-29T14:33:13;6.70;99.90
41720;DHT22;27405;53.316;-6.294;2023-12-29T14:35:39;6.70;99.90
41720;DHT22;27405;53.316;-6.294;2023-12-29T14:38:04;6.70;99.90
41720;DHT22;27405;53.316;-6.294;2023-12-29T14:40:30;6.70;99.90
41720;DHT22;27405;53.316;-6.294;2023-12-29T14:43:00;6.70;99.90
41720;DHT22;27405;53.316;-6.294;2023-12-29T14:45:26;6.80;99.90
41720;DHT22;27405;53.316;-6.294;2023-12-29T14:47:58;6.80;99.90
41720;DHT22;27405;53.316;-6.294;2023-12-29T14:50:23;6.80;99.90
41720;DHT22;27405;53.316;-6.294;2023-12-29T14:52:49;6.80;99.90
41720;DHT22;27405;53.316;-6.294;2023-12-29T14:55:15;6.80;99.90
41720;DHT22;27405;53.316;-6.294;2023-12-29T14:57:40;6.80;99.90
41720;DHT22;27405;53.316;-6.294;2023-12-29T15:00:06;6.80;99.90
41720;DHT22;27405;53.316;-6.294;2023-12-29T15:02:32;6.80;99.90
41720;DHT22;27405;53.316;-6.294;2023-12-29T15:04:58;6.80;99.90
41720;DHT22;27405;53.316;-6.294;2023-12-29T15:07:23;6.90;99.90
41720;DHT22;27405;53.316;-6.294;2023-12-29T15:09:54;6.90;99.90
41720;DHT22;27405;53.316;-6.294;2023-12-29T15:12:20;6.90;99.90
41720;DHT22;27405;53.316;-6.294;2023-12-29T15:14:46;7.00;99.90
41720;DHT22;27405;53.316;-6.294;2023-12-29T15:17:11;7.00;99.90
41720;DHT22;27405;53.316;-6.294;2023-12-29T15:19:37;7.00;99.90
41720;DHT22;27405;53.316;-6.294;2023-12-29T15:22:03;7.00;99.90
41720;DHT22;27405;53.316;-6.294;2023-12-29T15:24:28;7.10;99.90
41720;DHT22;27405;53.316;-6.294;2023-12-29T15:26:54;7.10;99.90
41720;DHT22;27405;53.316;-6.294;2023-12-29T15:29:19;7.10;99.90
41720;DHT22;27405;53.316;-6.294;2023-12-29T15:31:45;7.10;99.90
41720;DHT22;27405;53.316;-6.294;2023-12-29T15:34:12;7.10;99.90
41720;DHT22;27405;53.316;-6.294;2023-12-29T15:36:38;7.10;99.90
41720;DHT22;27405;53.316;-6.294;2023-12-29T15:39:03;7.10;99.90
41720;DHT22;27405;53.316;-6.294;2023-12-29T15:41:33;7.10;99.90
41720;DHT22;27405;53.316;-6.294;2023-12-29T15:43:59;7.10;99.90
41720;DHT22;27405;53.316;-6.294;2023-12-29T15:46:25;7.10;99.90
41720;DHT22;27405;53.316;-6.294;2023-12-29T15:48:51;7.10;99.90
41720;DHT22;27405;53.316;-6.294;2023-12-29T15:51:17;7.10;99.90
41720;DHT22;27405;53.316;-6.294;2023-12-29T15:53:43;7.00;99.90
41720;DHT22;27405;53.316;-6.294;2023-12-29T15:56:18;7.00;99.90
41720;DHT22;27405;53.316;-6.294;2023-12-29T15:58:45;7.00;99.90
41720;DHT22;27405;53.316;-6.294;2023-12-29T16:01:19;6.90;99.90
41720;DHT22;27405;53.316;-6.294;2023-12-29T16:03:44;6.90;99.90
41720;DHT22;27405;53.316;-6.294;2023-12-29T16:06:18;7.00;99.90
41720;DHT22;27405;53.316;-6.294;2023-12-29T16:08:44;7.00;99.90